createdAt,value
2023-01-13T00:00:19.901Z,9.550926
2023-01-13T00:05:19.561Z,9.511574
2023-01-13T00:10:19.699Z,9.465278
2023-01-13T00:15:19.664Z,9.432870
2023-01-13T00:20:19.570Z,9.388889
2023-01-13T00:25:19.761Z,9.349537
2023-01-13T00:30:19.549Z,9.335648
2023-01-13T00:35:19.766Z,9.361111
2023-01-13T00:40:19.927Z,9.400463
2023-01-13T00:45:19.712Z,9.446759
2023-01-13T00:50:19.602Z,9.488426
2023-01-13T00:55:19.592Z,9.550926
2023-01-13T01:00:19.749Z,9.583333
2023-01-13T01:05:19.665Z,9.618056
2023-01-13T01:10:19.508Z,9.627315
2023-01-13T01:15:20.266Z,9.613426
2023-01-13T01:20:19.910Z,9.608796
2023-01-13T01:25:19.958Z,9.611111
2023-01-13T01:30:19.552Z,9.606481
2023-01-13T01:35:20.028Z,9.606481
2023-01-13T01:40:19.651Z,9.627315
2023-01-13T01:45:19.671Z,9.664352
2023-01-13T01:50:19.513Z,9.703704
2023-01-13T01:55:19.638Z,9.736111
2023-01-13T02:00:19.587Z,9.768519
2023-01-13T02:05:19.711Z,9.789352
2023-01-13T02:10:19.677Z,9.817130
2023-01-13T02:15:17.424Z,9.833333
2023-01-13T02:20:17.000Z,9.840000
2023-01-13T02:25:17.167Z,9.844907
2023-01-13T02:35:17.465Z,9.881944
2023-01-13T02:40:17.031Z,9.872685
2023-01-13T02:45:17.069Z,9.849537
2023-01-13T02:50:17.072Z,9.833333
2023-01-13T02:55:17.054Z,9.798611
2023-01-13T03:00:17.085Z,9.766204
2023-01-13T03:05:17.035Z,9.726852
2023-01-13T03:10:16.948Z,9.722222
2023-01-13T03:15:17.590Z,9.722222
2023-01-13T03:20:17.343Z,9.712963
2023-01-13T03:25:17.144Z,9.685185
2023-01-13T03:30:17.103Z,9.666667
2023-01-13T03:35:17.013Z,9.668981
2023-01-13T03:40:17.233Z,9.659722
2023-01-13T03:45:16.960Z,9.641204
2023-01-13T03:50:17.008Z,9.590278
2023-01-13T03:55:17.002Z,9.560185
2023-01-13T04:00:17.041Z,9.578704
2023-01-13T04:05:16.939Z,9.608796
2023-01-13T04:10:17.187Z,9.631944
2023-01-13T04:15:17.268Z,9.657407
2023-01-13T04:20:16.955Z,9.673611
2023-01-13T04:25:17.010Z,9.678241
2023-01-13T04:30:16.937Z,9.678241
2023-01-13T04:35:16.989Z,9.666667
2023-01-13T04:40:17.095Z,9.666667
2023-01-13T04:45:16.883Z,9.699074
2023-01-13T04:50:17.139Z,9.731481
2023-01-13T04:55:17.010Z,9.777778
2023-01-13T05:00:16.994Z,9.803241
2023-01-13T05:05:17.046Z,9.831019
2023-01-13T05:10:17.092Z,9.810185
2023-01-13T05:15:18.302Z,9.787037
2023-01-13T05:20:17.223Z,9.763889
2023-01-13T05:25:18.066Z,9.745370
2023-01-13T05:30:17.459Z,9.726852
2023-01-13T05:35:17.012Z,9.722222
2023-01-13T05:40:16.904Z,9.682870
2023-01-13T05:45:16.865Z,9.638889
2023-01-13T05:50:17.206Z,9.597222
2023-01-13T05:55:17.502Z,9.562500
2023-01-13T06:00:17.192Z,9.574074
2023-01-13T06:05:17.051Z,9.594907
2023-01-13T06:10:17.646Z,9.606481
2023-01-13T06:15:31.925Z,9.597222
2023-01-13T06:20:16.899Z,9.557870
2023-01-13T06:25:17.000Z,9.555556
2023-01-13T06:30:17.028Z,9.555556
2023-01-13T06:35:17.160Z,9.564815
2023-01-13T06:40:17.534Z,9.557870
2023-01-13T06:45:17.765Z,9.553333
2023-01-13T06:50:17.326Z,9.524444
2023-01-13T06:55:17.476Z,9.500000
2023-01-13T07:00:17.496Z,9.495556
2023-01-13T07:05:16.841Z,9.518519
2023-01-13T07:10:17.165Z,9.557870
2023-01-13T07:15:17.342Z,9.604444
2023-01-13T07:20:16.971Z,9.634259
2023-01-13T07:25:16.907Z,9.696759
2023-01-13T07:30:17.265Z,9.747685
2023-01-13T07:35:16.939Z,9.780093
2023-01-13T07:40:16.785Z,9.837963
2023-01-13T07:45:16.853Z,9.879630
2023-01-13T07:50:16.954Z,9.906667
2023-01-13T07:55:16.936Z,9.898148
2023-01-13T08:00:16.957Z,9.886574
2023-01-13T08:05:16.993Z,9.918981
2023-01-13T08:10:17.097Z,9.951389
2023-01-13T08:15:17.197Z,9.990741
2023-01-13T08:20:17.146Z,10.022222
2023-01-13T08:25:16.944Z,10.068889
2023-01-13T08:30:16.961Z,10.108796
2023-01-13T08:35:17.264Z,9.671296
2023-01-13T08:40:17.412Z,8.895833
2023-01-13T08:45:16.945Z,8.331019
2023-01-13T08:50:17.206Z,7.960648
2023-01-13T08:55:19.269Z,7.729167
2023-01-13T09:00:17.425Z,7.537778
2023-01-13T09:05:17.821Z,7.435185
2023-01-13T09:10:17.020Z,7.368056
2023-01-13T09:15:17.287Z,7.317130
2023-01-13T09:20:16.893Z,7.282222
2023-01-13T09:25:16.915Z,7.256944
2023-01-13T09:30:16.828Z,7.248889
2023-01-13T09:35:16.884Z,7.254630
2023-01-13T09:40:16.950Z,7.275463
2023-01-13T09:45:16.847Z,7.305556
2023-01-13T09:50:16.858Z,7.333333
2023-01-13T09:55:16.933Z,7.344907
2023-01-13T10:00:16.913Z,7.386667
2023-01-13T10:05:16.882Z,7.418981
2023-01-13T10:10:16.894Z,7.446759
2023-01-13T10:15:17.241Z,7.481481
2023-01-13T10:20:17.091Z,7.511574
2023-01-13T10:25:16.826Z,7.555556
2023-01-13T10:30:17.037Z,7.555556
2023-01-13T10:35:17.049Z,7.567130
2023-01-13T10:40:16.835Z,7.578704
2023-01-13T10:45:17.627Z,7.594907
2023-01-13T10:50:17.143Z,7.740741
2023-01-13T10:55:16.978Z,7.780093
2023-01-13T11:00:16.794Z,7.797778
2023-01-13T11:05:16.867Z,7.909722
2023-01-13T11:10:16.936Z,7.997778
2023-01-13T11:15:17.392Z,8.043981
2023-01-13T11:20:17.010Z,8.051111
2023-01-13T11:25:16.885Z,8.016204
2023-01-13T11:30:16.851Z,8.018519
2023-01-13T11:35:16.906Z,8.020833
2023-01-13T11:40:16.803Z,8.067130
2023-01-13T11:45:16.931Z,8.150463
2023-01-13T11:50:16.759Z,8.189815
2023-01-13T11:55:17.283Z,8.291111
2023-01-13T12:00:16.899Z,8.719907
2023-01-13T12:05:16.838Z,8.833333
2023-01-13T12:10:16.818Z,9.048611
2023-01-13T12:15:17.119Z,9.201389
2023-01-13T12:20:16.928Z,9.266667
2023-01-13T12:25:16.826Z,9.347222
2023-01-13T12:30:16.829Z,9.412037
2023-01-13T12:35:16.870Z,9.421296
2023-01-13T12:40:16.842Z,9.525463
2023-01-13T12:45:18.491Z,9.548611
2023-01-13T12:50:17.123Z,9.495370
2023-01-13T12:55:16.905Z,9.467593
2023-01-13T13:00:16.880Z,9.423611
2023-01-13T13:05:16.778Z,9.412037
2023-01-13T13:10:16.839Z,9.465278
2023-01-13T13:15:17.280Z,9.562500
2023-01-13T13:20:16.799Z,9.657407
2023-01-13T13:25:16.831Z,9.597222
2023-01-13T13:30:16.813Z,9.493056
2023-01-13T13:35:16.870Z,9.453704
2023-01-13T13:40:16.848Z,9.437500
2023-01-13T13:45:16.891Z,9.328889
2023-01-13T13:50:16.828Z,9.291667
2023-01-13T13:55:16.848Z,9.231481
2023-01-13T14:00:16.713Z,9.134259
2023-01-13T14:05:16.752Z,9.016204
2023-01-13T14:10:17.165Z,8.900000
2023-01-13T14:15:16.968Z,8.814815
2023-01-13T14:20:16.765Z,8.546667
2023-01-13T14:25:16.829Z,7.263889
2023-01-13T14:30:16.821Z,6.532407
2023-01-13T14:35:16.865Z,6.287037
2023-01-13T14:40:17.025Z,6.310185
2023-01-13T14:45:17.058Z,6.402778
2023-01-13T14:50:16.741Z,6.425926
2023-01-13T14:55:16.636Z,6.486111
2023-01-13T15:00:16.705Z,6.504630
2023-01-13T15:05:16.741Z,6.555556
2023-01-13T15:10:16.708Z,6.569444
2023-01-13T15:15:16.991Z,6.578704
2023-01-13T15:20:16.880Z,6.606481
2023-01-13T15:25:16.890Z,6.655093
2023-01-13T15:30:19.221Z,6.763889
2023-01-13T15:35:19.166Z,6.842222
2023-01-13T15:40:19.129Z,6.937500
2023-01-13T15:45:19.149Z,6.935185
2023-01-13T15:50:19.330Z,6.877315
2023-01-13T15:55:19.140Z,6.914352
2023-01-13T16:00:19.216Z,6.951389
2023-01-13T16:05:19.229Z,6.942130
2023-01-13T16:10:19.236Z,6.925926
2023-01-13T16:15:19.377Z,6.824074
2023-01-13T16:20:19.105Z,6.581019
2023-01-13T16:25:19.322Z,6.104167
2023-01-13T16:30:19.153Z,6.071759
2023-01-13T16:35:19.702Z,6.298611
2023-01-13T16:40:19.197Z,6.412037
2023-01-13T16:45:19.210Z,6.460000
2023-01-13T16:50:21.669Z,6.532407
2023-01-13T16:55:19.444Z,6.497685
2023-01-13T17:00:19.144Z,6.506944
2023-01-13T17:05:19.355Z,6.583333
2023-01-13T17:10:19.252Z,6.655093
2023-01-13T17:15:19.603Z,6.680556
2023-01-13T17:20:19.218Z,6.736111
2023-01-13T17:25:19.146Z,6.784722
2023-01-13T17:30:19.199Z,6.782407
2023-01-13T17:35:19.232Z,6.777778
2023-01-13T17:40:19.754Z,6.759259
2023-01-13T17:45:19.173Z,6.719907
2023-01-13T17:50:19.219Z,6.773148
2023-01-13T17:55:19.165Z,6.787037
2023-01-13T18:00:19.522Z,6.837963
2023-01-13T18:05:19.209Z,6.909722
2023-01-13T18:10:19.292Z,6.960648
2023-01-13T18:15:19.283Z,6.986111
2023-01-13T18:20:19.511Z,7.048611
2023-01-13T18:25:19.996Z,7.046296
2023-01-13T18:30:19.230Z,6.997685
2023-01-13T18:35:19.184Z,6.916667
2023-01-13T18:40:19.131Z,6.888889
2023-01-13T18:45:19.456Z,6.831019
2023-01-13T18:50:19.171Z,6.805556
2023-01-13T18:55:19.324Z,6.782407
2023-01-13T19:00:19.125Z,6.777778
2023-01-13T19:05:19.133Z,6.835648
2023-01-13T19:10:19.132Z,6.928241
2023-01-13T19:15:19.627Z,6.979167
2023-01-13T19:20:19.089Z,6.942130
2023-01-13T19:25:19.263Z,6.875000
2023-01-13T19:30:19.570Z,6.784722
2023-01-13T19:35:19.209Z,6.694444
2023-01-13T19:40:19.515Z,6.696759
2023-01-13T19:45:19.181Z,6.708333
2023-01-13T19:50:19.126Z,6.704444
2023-01-13T19:55:19.367Z,6.787037
2023-01-13T20:00:19.050Z,6.898148
2023-01-13T20:05:19.099Z,6.974537
2023-01-13T20:10:19.114Z,7.076389
2023-01-13T20:15:19.370Z,7.025463
2023-01-13T20:20:19.096Z,6.944444
2023-01-13T20:25:19.138Z,6.944444
2023-01-13T20:30:19.246Z,6.918981
2023-01-13T20:35:19.194Z,6.921296
2023-01-13T20:40:19.223Z,6.928241
2023-01-13T20:45:19.186Z,6.891204
2023-01-13T20:50:19.289Z,6.937500
2023-01-13T20:55:19.113Z,6.932870
2023-01-13T21:00:19.712Z,6.909722
2023-01-13T21:05:19.136Z,6.884259
2023-01-13T21:10:19.160Z,6.937500
2023-01-13T21:15:19.260Z,6.921296
2023-01-13T21:20:19.251Z,6.886574
2023-01-13T21:25:19.451Z,6.937500
2023-01-13T21:30:19.094Z,6.939815
2023-01-13T21:35:19.128Z,6.875000
2023-01-13T21:40:19.129Z,6.787037
2023-01-13T21:45:16.668Z,6.756944
2023-01-13T21:50:16.570Z,6.608796
2023-01-13T21:55:16.698Z,6.555556
2023-01-13T22:00:16.657Z,6.560185
2023-01-13T22:05:16.587Z,6.594907
2023-01-13T22:10:16.717Z,6.648148
2023-01-13T22:15:16.798Z,6.761574
2023-01-13T22:20:16.845Z,6.810185
2023-01-13T22:25:16.638Z,6.865741
2023-01-13T22:30:16.589Z,7.000000
2023-01-13T22:35:16.914Z,7.078704
2023-01-13T22:40:16.792Z,7.127315
2023-01-13T22:45:16.559Z,7.173611
2023-01-13T22:50:16.665Z,7.208333
2023-01-13T22:55:16.691Z,7.171296
2023-01-13T23:05:16.750Z,7.004831
2023-01-13T23:10:16.569Z,6.846667
2023-01-13T23:15:16.652Z,6.736111
2023-01-13T23:20:16.677Z,6.638889
2023-01-13T23:25:16.590Z,6.594907
2023-01-13T23:30:16.515Z,6.532407
2023-01-13T23:35:16.943Z,6.509259
2023-01-13T23:40:16.655Z,6.506944
2023-01-13T23:45:16.528Z,6.486111
2023-01-13T23:50:16.708Z,6.497685
2023-01-13T23:55:16.577Z,6.530093
